createdAt,value
2018-04-19T00:02:18.371Z,21.59
2018-04-19T00:04:46.738Z,21.67
2018-04-19T00:07:15.094Z,21.61
2018-04-19T00:09:43.462Z,21.71
2018-04-19T00:12:11.816Z,21.68
2018-04-19T00:14:40.585Z,21.73
2018-04-19T00:17:08.943Z,21.68
2018-04-19T00:19:37.304Z,21.59
2018-04-19T00:22:05.682Z,21.57
2018-04-19T00:24:34.040Z,21.55
2018-04-19T00:27:02.450Z,21.54
2018-04-19T00:29:30.811Z,21.56
2018-04-19T00:31:59.214Z,21.60
2018-04-19T00:34:27.550Z,21.60
2018-04-19T00:36:55.915Z,21.48
2018-04-19T00:39:24.678Z,21.36
2018-04-19T00:41:53.043Z,21.37
2018-04-19T00:44:21.428Z,21.47
2018-04-19T00:46:49.789Z,21.35
2018-04-19T00:49:18.143Z,21.36
2018-04-19T00:51:46.514Z,21.28
2018-04-19T00:54:14.932Z,21.22
2018-04-19T00:56:43.279Z,21.22
2018-04-19T00:59:12.315Z,21.30
2018-04-19T01:01:40.689Z,21.28
2018-04-19T01:04:09.079Z,21.19
2018-04-19T01:06:37.438Z,21.17
2018-04-19T01:09:06.739Z,21.13
2018-04-19T01:11:35.127Z,21.01
2018-04-19T01:14:03.499Z,21.16
2018-04-19T01:16:31.878Z,21.20
2018-04-19T01:19:00.239Z,21.23
2018-04-19T01:21:28.619Z,21.12
2018-04-19T01:23:57.011Z,21.17
2018-04-19T01:26:25.370Z,21.05
2018-04-19T01:28:53.729Z,21.18
2018-04-19T01:31:22.146Z,21.16
2018-04-19T01:33:50.499Z,21.07
2018-04-19T01:36:25.572Z,21.06
2018-04-19T01:38:53.929Z,21.03
2018-04-19T01:41:22.310Z,21.17
2018-04-19T01:43:50.663Z,21.17
2018-04-19T01:46:19.022Z,21.07
2018-04-19T01:48:47.777Z,21.01
2018-04-19T01:51:16.151Z,20.96
2018-04-19T01:53:44.517Z,20.89
2018-04-19T01:56:12.902Z,20.85
2018-04-19T01:58:41.263Z,20.82
2018-04-19T02:01:09.629Z,20.75
2018-04-19T02:03:38.039Z,20.72
2018-04-19T02:06:06.394Z,20.64
2018-04-19T02:08:34.784Z,20.67
2018-04-19T02:11:03.144Z,20.58
2018-04-19T02:13:31.564Z,20.61
2018-04-19T02:15:59.940Z,20.62
2018-04-19T02:18:28.302Z,20.50
2018-04-19T02:20:56.703Z,20.53
2018-04-19T02:23:25.082Z,20.53
2018-04-19T02:25:53.451Z,20.59
2018-04-19T02:28:21.826Z,20.76
2018-04-19T02:30:50.194Z,20.48
2018-04-19T02:33:18.572Z,20.63
2018-04-19T02:35:47.011Z,20.72
2018-04-19T02:38:15.330Z,20.74
2018-04-19T02:40:43.723Z,20.57
2018-04-19T02:43:12.107Z,20.44
2018-04-19T02:45:40.476Z,20.32
2018-04-19T02:48:08.835Z,20.31
2018-04-19T02:50:37.258Z,20.31
2018-04-19T02:53:05.616Z,19.98
2018-04-19T02:55:33.998Z,20.11
2018-04-19T02:58:02.361Z,20.31
2018-04-19T03:00:30.743Z,20.34
2018-04-19T03:02:59.110Z,20.30
2018-04-19T03:05:27.502Z,20.17
2018-04-19T03:07:55.893Z,20.13
2018-04-19T03:10:24.250Z,19.85
2018-04-19T03:12:52.651Z,19.77
2018-04-19T03:15:21.018Z,19.83
2018-04-19T03:17:49.379Z,19.84
2018-04-19T03:20:17.782Z,19.81
2018-04-19T03:22:46.146Z,19.68
2018-04-19T03:25:15.251Z,19.77
2018-04-19T03:27:43.626Z,19.83
2018-04-19T03:30:11.983Z,19.74
2018-04-19T03:32:40.350Z,19.80
2018-04-19T03:35:09.134Z,19.93
2018-04-19T03:37:37.976Z,19.87
2018-04-19T03:40:06.338Z,20.01
2018-04-19T03:42:34.710Z,19.86
2018-04-19T03:45:03.065Z,19.91
2018-04-19T03:47:31.433Z,19.88
2018-04-19T03:50:00.278Z,19.87
2018-04-19T03:52:28.642Z,19.76
2018-04-19T03:54:57.034Z,19.74
2018-04-19T03:57:25.400Z,19.71
2018-04-19T03:59:53.753Z,19.57
2018-04-19T04:02:22.119Z,19.56
2018-04-19T04:04:50.886Z,19.66
2018-04-19T04:07:19.257Z,19.57
2018-04-19T04:09:47.623Z,19.61
2018-04-19T04:12:16.146Z,19.58
2018-04-19T04:14:44.571Z,19.70
2018-04-19T04:20:44.773Z,19.85
2018-04-19T04:23:44.743Z,19.83
2018-04-19T04:26:13.114Z,19.85
2018-04-19T04:28:41.491Z,19.85
2018-04-19T04:31:09.869Z,19.99
2018-04-19T04:36:16.623Z,20.51
2018-04-19T04:38:45.382Z,21.17
2018-04-19T04:41:13.734Z,21.66
2018-04-19T04:43:42.094Z,22.05
2018-04-19T04:46:10.495Z,22.26
2018-04-19T04:48:38.867Z,22.84
2018-04-19T04:51:07.223Z,23.24
2018-04-19T04:53:35.611Z,23.82
2018-04-19T04:56:03.980Z,24.55
2018-04-19T04:58:32.330Z,25.27
2018-04-19T05:01:01.170Z,26.17
2018-04-19T05:03:29.550Z,26.95
2018-04-19T05:05:57.903Z,27.48
2018-04-19T05:08:26.258Z,28.02
2018-04-19T05:10:55.036Z,28.64
2018-04-19T05:13:23.896Z,29.29
2018-04-19T05:15:52.305Z,29.87
2018-04-19T05:18:21.054Z,30.47
2018-04-19T05:20:49.475Z,30.70
2018-04-19T05:23:18.241Z,31.16
2018-04-19T05:25:46.597Z,31.31
2018-04-19T05:28:14.962Z,31.65
2018-04-19T05:30:43.326Z,31.58
2018-04-19T05:33:11.711Z,32.40
2018-04-19T05:35:40.118Z,32.51
2018-04-19T05:38:08.466Z,32.34
2018-04-19T05:40:36.889Z,32.92
2018-04-19T05:43:05.242Z,33.14
2018-04-19T05:45:33.623Z,33.24
2018-04-19T05:48:02.012Z,34.03
2018-04-19T05:50:30.387Z,33.77
2018-04-19T05:52:58.769Z,35.00
2018-04-19T05:55:27.150Z,35.39
2018-04-19T05:57:55.535Z,36.15
2018-04-19T06:00:23.899Z,37.11
2018-04-19T06:02:52.289Z,37.58
2018-04-19T06:05:21.357Z,38.20
2018-04-19T06:07:49.728Z,38.42
2018-04-19T06:10:18.090Z,38.98
2018-04-19T06:12:46.927Z,39.45
2018-04-19T06:15:15.356Z,39.43
2018-04-19T06:17:43.726Z,39.66
2018-04-19T06:20:12.575Z,39.13
2018-04-19T06:22:40.950Z,39.32
2018-04-19T06:25:09.316Z,39.62
2018-04-19T06:27:38.614Z,39.61
2018-04-19T06:30:06.988Z,39.25
2018-04-19T06:32:35.859Z,39.65
2018-04-19T06:35:04.606Z,39.71
2018-04-19T06:37:32.971Z,39.78
2018-04-19T06:40:01.368Z,40.07
2018-04-19T06:42:29.822Z,39.81
2018-04-19T06:44:58.238Z,39.93
2018-04-19T06:47:26.687Z,39.97
2018-04-19T06:49:55.195Z,40.21
2018-04-19T06:52:23.703Z,40.45
2018-04-19T06:54:52.534Z,39.93
2018-04-19T06:57:20.902Z,39.33
2018-04-19T06:59:49.254Z,39.98
2018-04-19T07:02:18.021Z,40.26
2018-04-19T07:04:46.379Z,40.78
2018-04-19T07:07:14.742Z,40.62
2018-04-19T07:09:43.090Z,41.00
2018-04-19T07:12:11.461Z,41.80
2018-04-19T07:14:39.872Z,41.99
2018-04-19T07:17:08.662Z,42.17
2018-04-19T07:19:37.054Z,42.57
2018-04-19T07:22:05.424Z,42.58
2018-04-19T07:24:33.778Z,42.22
2018-04-19T07:27:02.187Z,42.69
2018-04-19T07:29:30.563Z,42.73
2018-04-19T07:31:58.940Z,42.59
2018-04-19T07:34:27.298Z,42.73
2018-04-19T07:36:55.690Z,42.73
2018-04-19T07:39:24.071Z,42.35
2018-04-19T07:41:52.465Z,42.59
2018-04-19T07:44:20.827Z,42.51
2018-04-19T07:46:49.211Z,41.78
2018-04-19T07:49:17.635Z,40.95
2018-04-19T07:51:46.549Z,41.42
2018-04-19T07:54:14.986Z,42.59
2018-04-19T07:56:43.510Z,43.04
2018-04-19T07:59:11.947Z,43.26
2018-04-19T08:01:40.418Z,43.38
2018-04-19T08:04:08.867Z,42.77
2018-04-19T08:06:37.335Z,43.42
2018-04-19T08:09:08.331Z,44.14
2018-04-19T08:11:36.863Z,44.16
2018-04-19T08:14:05.299Z,44.27
2018-04-19T08:16:34.143Z,44.91
2018-04-19T08:19:02.886Z,46.28
2018-04-19T08:21:31.407Z,45.85
2018-04-19T08:23:59.830Z,45.59
2018-04-19T08:26:28.371Z,45.99
2018-04-19T08:28:56.845Z,46.39
2018-04-19T08:31:25.347Z,46.59
2018-04-19T08:33:53.805Z,45.75
2018-04-19T08:36:22.291Z,45.47
2018-04-19T08:38:50.727Z,45.21
2018-04-19T08:41:19.210Z,44.55
2018-04-19T08:43:47.669Z,45.41
2018-04-19T08:46:16.631Z,45.11
2018-04-19T08:48:45.118Z,45.28
2018-04-19T08:51:13.586Z,46.18
2018-04-19T08:53:42.060Z,46.55
2018-04-19T08:56:10.515Z,46.76
2018-04-19T08:58:38.998Z,46.34
2018-04-19T09:01:07.536Z,44.75
2018-04-19T09:03:36.025Z,45.86
2018-04-19T09:06:04.490Z,47.07
2018-04-19T09:08:32.957Z,47.20
2018-04-19T09:11:01.441Z,46.48
2018-04-19T09:13:29.935Z,45.34
2018-04-19T09:15:58.406Z,45.20
2018-04-19T09:18:26.867Z,45.27
2018-04-19T09:20:55.367Z,45.07
2018-04-19T09:23:23.845Z,44.91
2018-04-19T09:25:52.330Z,45.21
2018-04-19T09:28:20.790Z,45.89
2018-04-19T09:30:49.283Z,46.34
2018-04-19T09:33:17.744Z,46.46
2018-04-19T09:38:20.942Z,46.34
2018-04-19T09:40:49.417Z,46.68
2018-04-19T09:43:17.883Z,45.96
2018-04-19T09:45:46.741Z,46.07
2018-04-19T09:48:15.341Z,46.83
2018-04-19T09:50:44.207Z,47.87
2018-04-19T09:53:12.667Z,48.16
2018-04-19T09:55:41.270Z,46.38
2018-04-19T09:58:09.753Z,45.64
2018-04-19T10:00:43.857Z,45.35
2018-04-19T10:03:20.365Z,44.89
2018-04-19T10:05:48.841Z,45.72
2018-04-19T10:08:17.298Z,46.13
2018-04-19T10:10:45.780Z,47.09
2018-04-19T10:13:14.266Z,46.17
2018-04-19T10:15:42.739Z,45.62
2018-04-19T10:18:11.194Z,45.20
2018-04-19T10:20:39.702Z,44.70
2018-04-19T10:23:08.194Z,44.96
2018-04-19T10:25:36.658Z,45.38
2018-04-19T10:28:05.151Z,44.40
2018-04-19T10:30:33.642Z,44.44
2018-04-19T10:33:02.133Z,43.72
2018-04-19T10:35:30.696Z,43.50
2018-04-19T10:37:59.155Z,42.75
2018-04-19T10:40:27.650Z,42.80
2018-04-19T10:42:56.127Z,42.36
2018-04-19T10:45:24.570Z,41.52
2018-04-19T10:47:53.014Z,40.73
2018-04-19T10:50:21.463Z,40.98
2018-04-19T10:52:49.981Z,41.81
2018-04-19T10:55:18.414Z,41.75
2018-04-19T10:57:47.253Z,41.56
2018-04-19T11:00:15.719Z,41.66
2018-04-19T11:02:44.198Z,42.02
2018-04-19T11:05:12.638Z,42.39
2018-04-19T11:07:41.483Z,42.69
2018-04-19T11:10:09.917Z,42.43
2018-04-19T11:12:38.445Z,42.43
2018-04-19T11:15:06.903Z,41.39
2018-04-19T11:17:35.340Z,40.55
2018-04-19T11:20:04.210Z,39.00
2018-04-19T11:22:32.669Z,38.34
2018-04-19T11:25:01.132Z,37.70
2018-04-19T11:27:29.584Z,36.77
2018-04-19T11:29:58.426Z,35.90
2018-04-19T11:32:26.900Z,35.04
2018-04-19T11:34:55.338Z,34.33
2018-04-19T11:37:24.184Z,33.17
2018-04-19T11:39:52.644Z,33.04
2018-04-19T11:42:21.143Z,32.16
2018-04-19T11:44:49.611Z,32.11
2018-04-19T11:47:18.079Z,32.43
2018-04-19T11:49:46.583Z,31.92
2018-04-19T11:52:15.041Z,31.99
2018-04-19T11:54:43.507Z,32.19
2018-04-19T11:57:11.972Z,32.32
2018-04-19T11:59:40.883Z,32.12
2018-04-19T12:02:09.343Z,31.88
2018-04-19T12:04:38.190Z,32.01
2018-04-19T12:07:06.656Z,32.16
2018-04-19T12:09:35.102Z,32.35
2018-04-19T12:12:03.944Z,32.66
2018-04-19T12:14:32.382Z,32.58
2018-04-19T12:17:00.822Z,32.28
2018-04-19T12:19:29.260Z,32.51
2018-04-19T12:21:57.701Z,32.58
2018-04-19T12:24:26.535Z,32.66
2018-04-19T12:26:54.990Z,32.45
2018-04-19T12:29:23.434Z,31.78
2018-04-19T12:31:51.896Z,30.89
2018-04-19T12:34:20.853Z,30.47
2018-04-19T12:36:49.287Z,30.55
2018-04-19T12:39:17.756Z,31.15
2018-04-19T12:41:46.190Z,31.41
2018-04-19T12:44:14.632Z,31.21
2018-04-19T12:46:43.474Z,31.41
2018-04-19T12:49:11.962Z,30.90
2018-04-19T12:51:40.440Z,31.22
2018-04-19T12:54:08.875Z,31.45
2018-04-19T12:56:37.813Z,31.32
2018-04-19T12:59:06.290Z,31.11
2018-04-19T13:01:34.779Z,31.17
2018-04-19T13:04:03.250Z,31.17
2018-04-19T13:06:31.750Z,31.66
2018-04-19T13:09:00.214Z,31.31
2018-04-19T13:11:28.675Z,29.81
2018-04-19T13:13:58.152Z,29.27
2018-04-19T13:16:26.605Z,29.15
2018-04-19T13:18:55.038Z,29.17
2018-04-19T13:21:23.563Z,29.71
2018-04-19T13:23:52.024Z,30.53
2018-04-19T13:26:20.519Z,30.50
2018-04-19T13:28:49.007Z,30.73
2018-04-19T13:31:18.971Z,30.55
2018-04-19T13:33:47.801Z,30.17
2018-04-19T13:36:16.252Z,30.47
2018-04-19T13:38:44.687Z,30.25
2018-04-19T13:41:13.143Z,30.34
2018-04-19T13:43:41.624Z,30.63
2018-04-19T13:46:10.074Z,30.71
2018-04-19T13:48:38.640Z,30.73
2018-04-19T13:51:07.495Z,31.12
2018-04-19T13:53:35.939Z,31.17
2018-04-19T13:56:04.455Z,30.99
2018-04-19T13:58:32.920Z,30.69
2018-04-19T14:01:01.388Z,29.83
2018-04-19T14:03:29.881Z,30.04
2018-04-19T14:05:58.367Z,30.30
2018-04-19T14:08:26.849Z,30.13
2018-04-19T14:10:55.331Z,30.25
2018-04-19T14:13:23.801Z,30.24
2018-04-19T14:15:52.275Z,30.27
2018-04-19T14:18:20.752Z,30.33
2018-04-19T14:20:49.222Z,30.73
2018-04-19T14:23:18.055Z,31.05
2018-04-19T14:25:46.521Z,31.20
2018-04-19T14:28:14.962Z,30.83
2018-04-19T14:30:43.806Z,31.11
2018-04-19T14:33:12.238Z,31.53
2018-04-19T14:35:41.089Z,31.32
2018-04-19T14:38:09.547Z,30.74
2018-04-19T14:40:38.023Z,30.82
2018-04-19T14:43:06.471Z,31.01
2018-04-19T14:45:35.319Z,30.93
2018-04-19T14:48:03.765Z,30.43
2018-04-19T14:50:32.205Z,30.74
2018-04-19T14:53:01.037Z,30.66
2018-04-19T14:55:29.511Z,31.14
2018-04-19T14:57:57.985Z,31.29
2018-04-19T15:00:26.430Z,31.14
2018-04-19T15:02:54.964Z,31.15
2018-04-19T15:05:23.416Z,30.76
2018-04-19T15:07:51.923Z,31.16
2018-04-19T15:10:20.379Z,31.29
2018-04-19T15:12:49.363Z,30.90
2018-04-19T15:15:18.298Z,30.77
2018-04-19T15:17:46.743Z,30.71
2018-04-19T15:20:16.582Z,30.30
2018-04-19T15:22:45.015Z,30.95
2018-04-19T15:25:13.975Z,30.77
2018-04-19T15:27:42.414Z,30.61
2018-04-19T15:30:10.859Z,31.05
2018-04-19T15:32:39.315Z,30.74
2018-04-19T15:35:07.758Z,31.04
2018-04-19T15:37:36.191Z,31.18
2018-04-19T15:40:04.646Z,30.94
2018-04-19T15:42:33.108Z,31.04
2018-04-19T15:45:01.547Z,30.64
2018-04-19T15:47:29.990Z,30.51
2018-04-19T15:49:58.489Z,30.64
2018-04-19T15:52:26.948Z,31.00
2018-04-19T15:54:55.388Z,31.12
2018-04-19T15:57:24.314Z,30.95
2018-04-19T15:59:52.822Z,31.05
2018-04-19T16:02:21.270Z,31.22
2018-04-19T16:04:49.765Z,31.20
2018-04-19T16:07:18.240Z,31.38
2018-04-19T16:09:46.714Z,31.19
2018-04-19T16:12:15.151Z,31.08
2018-04-19T16:14:43.682Z,31.18
2018-04-19T16:17:12.181Z,30.88
2018-04-19T16:19:40.607Z,30.76
2018-04-19T16:22:09.537Z,30.59
2018-04-19T16:24:38.014Z,30.75
2018-04-19T16:27:06.454Z,31.08
2018-04-19T16:29:35.309Z,30.03
2018-04-19T16:32:03.759Z,29.87
2018-04-19T16:34:32.383Z,29.75
2018-04-19T16:37:00.833Z,30.21
2018-04-19T16:39:29.322Z,30.16
2018-04-19T16:41:57.768Z,30.35
2018-04-19T16:44:26.207Z,30.14
2018-04-19T16:46:54.656Z,30.23
2018-04-19T16:49:23.123Z,30.21
2018-04-19T16:51:51.562Z,30.42
2018-04-19T16:54:20.201Z,30.33
2018-04-19T16:56:48.647Z,30.11
2018-04-19T16:59:17.476Z,29.88
2018-04-19T17:01:45.939Z,29.90
2018-04-19T17:04:14.523Z,30.14
2018-04-19T17:06:42.976Z,29.86
2018-04-19T17:09:11.803Z,29.92
2018-04-19T17:11:40.291Z,30.48
2018-04-19T17:14:08.762Z,30.47
2018-04-19T17:16:37.255Z,29.83
2018-04-19T17:19:05.727Z,29.70
2018-04-19T17:21:34.184Z,29.59
2018-04-19T17:24:03.035Z,29.89
2018-04-19T17:26:31.485Z,29.79
2018-04-19T17:28:59.931Z,29.13
2018-04-19T17:31:28.758Z,29.04
2018-04-19T17:33:57.230Z,29.47
2018-04-19T17:36:25.659Z,29.49
2018-04-19T17:38:54.199Z,29.61
2018-04-19T17:41:22.678Z,29.51
2018-04-19T17:43:51.160Z,29.47
2018-04-19T17:46:19.614Z,29.16
2018-04-19T17:48:48.063Z,29.08
2018-04-19T17:51:16.616Z,28.85
2018-04-19T17:53:45.100Z,28.86
2018-04-19T17:56:13.751Z,28.76
2018-04-19T17:58:42.192Z,28.94
2018-04-19T18:01:10.643Z,28.87
2018-04-19T18:03:39.134Z,28.79
2018-04-19T18:06:07.587Z,28.78
2018-04-19T18:08:36.070Z,28.78
2018-04-19T18:11:04.531Z,28.61
2018-04-19T18:13:32.971Z,28.42
2018-04-19T18:16:01.432Z,28.43
2018-04-19T18:18:29.911Z,28.40
2018-04-19T18:20:58.350Z,28.24
2018-04-19T18:23:27.196Z,28.11
2018-04-19T18:25:55.658Z,27.85
2018-04-19T18:28:24.133Z,27.38
2018-04-19T18:30:52.616Z,27.37
2018-04-19T18:33:21.102Z,27.37
2018-04-19T18:35:49.581Z,27.26
2018-04-19T18:38:18.040Z,26.94
2018-04-19T18:40:46.488Z,26.89
2018-04-19T18:43:14.960Z,27.01
2018-04-19T18:45:44.296Z,26.87
2018-04-19T18:48:12.975Z,26.85
2018-04-19T18:50:41.460Z,27.02
2018-04-19T18:53:09.961Z,26.92
2018-04-19T18:55:38.483Z,26.82
2018-04-19T18:58:06.966Z,26.98
2018-04-19T19:00:35.407Z,26.67
2018-04-19T19:03:03.874Z,26.64
2018-04-19T19:05:32.426Z,26.76
2018-04-19T19:08:00.867Z,26.28
2018-04-19T19:10:29.304Z,26.69
2018-04-19T19:12:58.156Z,26.60
2018-04-19T19:19:14.651Z,26.36
2018-04-19T19:21:43.131Z,26.51
2018-04-19T19:24:11.616Z,26.51
2018-04-19T19:26:40.061Z,26.36
2018-04-19T19:29:08.910Z,26.31
2018-04-19T19:31:37.361Z,26.36
2018-04-19T19:34:05.799Z,26.28
2018-04-19T19:36:34.328Z,26.20
2018-04-19T19:39:02.811Z,26.31
2018-04-19T19:41:31.262Z,26.11
2018-04-19T19:44:00.179Z,26.01
2018-04-19T19:46:28.624Z,26.04
2018-04-19T19:48:58.414Z,26.07
2018-04-19T19:51:26.855Z,25.90
2018-04-19T19:53:55.296Z,25.87
2018-04-19T19:56:24.140Z,25.84
2018-04-19T19:58:52.583Z,25.97
2018-04-19T20:01:21.025Z,25.90
2018-04-19T20:03:49.473Z,25.94
2018-04-19T20:06:17.929Z,25.78
2018-04-19T20:08:46.426Z,25.59
2018-04-19T20:11:14.896Z,25.69
2018-04-19T20:13:43.331Z,25.19
2018-04-19T20:16:11.772Z,25.41
2018-04-19T20:18:40.231Z,25.43
2018-04-19T20:21:08.671Z,25.41
2018-04-19T20:23:37.111Z,25.42
2018-04-19T20:26:05.549Z,25.28
2018-04-19T20:28:34.386Z,25.42
2018-04-19T20:31:02.830Z,25.43
2018-04-19T20:33:31.695Z,25.37
2018-04-19T20:36:00.167Z,25.41
2018-04-19T20:38:28.617Z,25.19
2018-04-19T20:40:57.119Z,25.18
2018-04-19T20:43:25.578Z,25.26
2018-04-19T20:45:54.044Z,25.00
2018-04-19T20:48:22.483Z,25.15
2018-04-19T20:50:50.931Z,25.11
2018-04-19T20:53:19.426Z,25.23
2018-04-19T20:55:47.890Z,24.93
2018-04-19T20:58:16.337Z,24.99
2018-04-19T21:00:44.782Z,24.60
2018-04-19T21:03:13.226Z,24.68
2018-04-19T21:05:41.662Z,24.62
2018-04-19T21:08:10.499Z,24.60
2018-04-19T21:10:38.943Z,24.54
2018-04-19T21:13:07.774Z,24.31
2018-04-19T21:15:36.220Z,24.44
2018-04-19T21:18:04.673Z,24.43
2018-04-19T21:20:33.127Z,24.37
2018-04-19T21:23:01.564Z,24.49
2018-04-19T21:25:30.016Z,24.41
2018-04-19T21:27:58.857Z,24.43
2018-04-19T21:30:27.307Z,24.24
2018-04-19T21:32:56.220Z,24.18
2018-04-19T21:35:24.703Z,24.29
2018-04-19T21:37:53.154Z,24.26
2018-04-19T21:40:21.992Z,24.03
2018-04-19T21:42:50.434Z,24.26
2018-04-19T21:45:18.891Z,24.34
2018-04-19T21:47:47.728Z,24.36
2018-04-19T21:50:16.170Z,23.98
2018-04-19T21:52:45.011Z,23.85
2018-04-19T21:55:13.464Z,23.67
2018-04-19T21:57:41.916Z,23.61
2018-04-19T22:00:10.359Z,23.62
2018-04-19T22:02:38.807Z,23.57
2018-04-19T22:05:07.314Z,23.57
2018-04-19T22:07:35.778Z,23.44
2018-04-19T22:10:04.229Z,23.18
2018-04-19T22:12:33.083Z,23.23
2018-04-19T22:15:01.519Z,23.53
2018-04-19T22:17:29.962Z,23.67
2018-04-19T22:19:58.408Z,23.70
2018-04-19T22:22:26.867Z,23.28
2018-04-19T22:24:55.303Z,23.56
2018-04-19T22:27:23.756Z,23.56
2018-04-19T22:29:52.189Z,23.36
2018-04-19T22:32:20.650Z,23.38
2018-04-19T22:34:49.475Z,23.34
2018-04-19T22:37:17.916Z,23.38
2018-04-19T22:39:46.353Z,23.35
2018-04-19T22:42:14.807Z,23.27
2018-04-19T22:44:43.249Z,23.26
2018-04-19T22:47:11.702Z,23.27
2018-04-19T22:49:40.139Z,23.01
2018-04-19T22:52:08.992Z,23.11
2018-04-19T22:54:37.427Z,23.24
2018-04-19T22:57:05.867Z,23.18
2018-04-19T22:59:34.306Z,23.14
2018-04-19T23:02:02.757Z,23.12
2018-04-19T23:04:31.195Z,22.96
2018-04-19T23:06:59.650Z,23.05
2018-04-19T23:09:28.130Z,23.01
2018-04-19T23:11:56.571Z,23.09
2018-04-19T23:14:25.422Z,22.90
2018-04-19T23:16:53.871Z,22.91
2018-04-19T23:19:22.363Z,22.85
2018-04-19T23:21:50.810Z,22.77
2018-04-19T23:24:19.324Z,22.63
2018-04-19T23:26:47.797Z,22.36
2018-04-19T23:29:16.234Z,22.39
2018-04-19T23:31:45.179Z,22.25
2018-04-19T23:34:13.663Z,22.18
2018-04-19T23:36:42.118Z,22.25
2018-04-19T23:39:10.567Z,22.16
2018-04-19T23:41:39.503Z,22.43
2018-04-19T23:44:07.951Z,22.47
2018-04-19T23:46:36.875Z,22.37
2018-04-19T23:49:05.349Z,22.34
2018-04-19T23:51:33.796Z,22.14
2018-04-19T23:54:02.655Z,22.02
2018-04-19T23:56:31.117Z,22.01
2018-04-19T23:58:59.588Z,22.04
